createdAt,value
2018-09-10T00:01:33.142Z,16.88
2018-09-10T00:04:01.540Z,16.84
2018-09-10T00:06:29.903Z,16.84
2018-09-10T00:08:58.699Z,16.73
2018-09-10T00:11:27.055Z,16.71
2018-09-10T00:13:55.370Z,16.73
2018-09-10T00:16:24.738Z,16.73
2018-09-10T00:18:53.120Z,16.72
2018-09-10T00:21:21.595Z,16.69
2018-09-10T00:23:49.912Z,16.66
2018-09-10T00:26:18.251Z,16.63
2018-09-10T00:28:46.588Z,16.42
2018-09-10T00:31:14.942Z,16.46
2018-09-10T00:33:43.244Z,16.52
2018-09-10T00:36:11.594Z,16.54
2018-09-10T00:38:39.942Z,16.48
2018-09-10T00:41:08.312Z,16.51
2018-09-10T00:43:36.661Z,16.50
2018-09-10T00:46:05.009Z,16.48
2018-09-10T00:48:33.356Z,16.32
2018-09-10T00:51:01.738Z,16.41
2018-09-10T00:53:30.122Z,16.39
2018-09-10T00:55:58.467Z,16.38
2018-09-10T00:58:26.814Z,16.37
2018-09-10T01:00:55.158Z,16.32
2018-09-10T01:03:23.499Z,16.24
2018-09-10T01:05:51.836Z,16.30
2018-09-10T01:08:20.176Z,16.29
2018-09-10T01:10:48.537Z,16.26
2018-09-10T01:13:16.870Z,16.26
2018-09-10T01:15:45.235Z,16.20
2018-09-10T01:18:13.557Z,16.19
2018-09-10T01:20:42.109Z,16.19
2018-09-10T01:23:10.452Z,16.15
2018-09-10T01:25:38.779Z,16.09
2018-09-10T01:28:08.733Z,16.09
2018-09-10T01:30:37.093Z,16.12
2018-09-10T01:33:09.241Z,16.15
2018-09-10T01:35:37.634Z,16.02
2018-09-10T01:38:05.989Z,16.09
2018-09-10T01:40:34.343Z,16.13
2018-09-10T01:43:02.688Z,16.12
2018-09-10T01:45:31.025Z,16.13
2018-09-10T01:47:59.400Z,16.14
2018-09-10T01:50:27.929Z,16.17
2018-09-10T01:52:56.280Z,16.17
2018-09-10T01:55:24.628Z,16.11
2018-09-10T01:57:53.476Z,16.15
2018-09-10T02:00:21.853Z,16.17
2018-09-10T02:02:50.204Z,16.12
2018-09-10T02:05:18.568Z,16.18
2018-09-10T02:07:46.905Z,16.20
2018-09-10T02:10:15.252Z,16.22
2018-09-10T02:12:43.615Z,16.22
2018-09-10T02:15:11.957Z,16.21
2018-09-10T02:17:40.259Z,16.20
2018-09-10T02:20:08.622Z,16.24
2018-09-10T02:22:36.994Z,16.22
2018-09-10T02:25:05.314Z,16.25
2018-09-10T02:27:33.762Z,16.28
2018-09-10T02:31:26.462Z,16.26
2018-09-10T02:33:54.797Z,16.32
2018-09-10T02:36:23.130Z,16.31
2018-09-10T02:38:51.476Z,16.34
2018-09-10T02:41:19.836Z,16.33
2018-09-10T02:43:48.176Z,16.31
2018-09-10T02:46:16.499Z,16.32
2018-09-10T02:48:44.820Z,16.33
2018-09-10T02:51:13.173Z,16.26
2018-09-10T02:53:41.516Z,16.28
2018-09-10T02:56:10.047Z,16.33
2018-09-10T02:58:38.591Z,16.34
2018-09-10T03:01:06.940Z,16.35
2018-09-10T03:03:35.476Z,16.29
2018-09-10T03:06:03.833Z,16.30
2018-09-10T03:08:32.162Z,16.26
2018-09-10T03:11:00.505Z,16.33
2018-09-10T03:13:28.855Z,16.27
2018-09-10T03:15:57.168Z,16.27
2018-09-10T03:18:25.494Z,16.32
2018-09-10T03:20:53.836Z,16.34
2018-09-10T03:23:22.170Z,16.27
2018-09-10T03:25:50.593Z,16.31
2018-09-10T03:28:19.570Z,16.31
2018-09-10T03:30:47.889Z,16.24
2018-09-10T03:33:16.238Z,16.21
2018-09-10T03:35:44.604Z,16.21
2018-09-10T03:38:12.972Z,16.02
2018-09-10T03:40:41.339Z,16.12
2018-09-10T03:43:09.685Z,16.16
2018-09-10T03:45:38.034Z,16.11
2018-09-10T03:48:06.411Z,16.11
2018-09-10T03:50:34.745Z,16.13
2018-09-10T03:53:03.124Z,16.09
2018-09-10T03:55:31.483Z,15.97
2018-09-10T03:57:59.827Z,16.10
2018-09-10T04:00:28.236Z,16.07
2018-09-10T04:02:56.588Z,15.99
2018-09-10T04:05:24.927Z,15.93
2018-09-10T04:07:53.300Z,15.90
2018-09-10T04:10:21.647Z,15.92
2018-09-10T04:12:49.995Z,15.91
2018-09-10T04:15:18.334Z,15.85
2018-09-10T04:17:46.679Z,15.93
2018-09-10T04:20:15.018Z,15.94
2018-09-10T04:22:44.185Z,15.89
2018-09-10T04:25:12.540Z,15.90
2018-09-10T04:27:40.884Z,15.86
2018-09-10T04:30:13.318Z,15.86
2018-09-10T04:32:42.646Z,15.82
2018-09-10T04:35:11.643Z,15.82
2018-09-10T04:37:40.605Z,15.71
2018-09-10T04:40:08.992Z,15.81
2018-09-10T04:42:37.372Z,15.74
2018-09-10T04:45:06.017Z,15.82
2018-09-10T04:47:34.400Z,15.86
2018-09-10T04:50:03.154Z,15.86
2018-09-10T04:52:31.572Z,15.82
2018-09-10T04:54:59.982Z,15.82
2018-09-10T04:57:28.346Z,15.86
2018-09-10T04:59:56.709Z,15.85
2018-09-10T05:02:25.052Z,15.90
2018-09-10T05:04:53.412Z,15.91
2018-09-10T05:07:21.770Z,15.92
2018-09-10T05:09:50.223Z,15.95
2018-09-10T05:12:18.456Z,15.97
2018-09-10T05:14:46.824Z,15.99
2018-09-10T05:17:15.200Z,16.01
2018-09-10T05:19:43.535Z,16.06
2018-09-10T05:22:11.900Z,16.08
2018-09-10T05:24:40.229Z,16.12
2018-09-10T05:27:08.601Z,16.13
2018-09-10T05:29:36.932Z,16.22
2018-09-10T05:32:05.322Z,16.28
2018-09-10T05:34:33.707Z,16.27
2018-09-10T05:37:02.087Z,16.33
2018-09-10T05:39:30.439Z,16.34
2018-09-10T05:41:58.813Z,16.38
2018-09-10T05:44:27.299Z,16.42
2018-09-10T05:46:55.692Z,16.47
2018-09-10T05:49:24.050Z,16.46
2018-09-10T05:51:52.495Z,16.48
2018-09-10T05:54:20.836Z,16.51
2018-09-10T05:56:49.281Z,16.57
2018-09-10T05:59:18.130Z,16.58
2018-09-10T06:01:46.526Z,16.56
2018-09-10T06:04:15.024Z,16.58
2018-09-10T06:06:43.550Z,16.60
2018-09-10T06:09:12.099Z,16.68
2018-09-10T06:11:40.487Z,16.80
2018-09-10T06:14:08.990Z,16.85
2018-09-10T06:16:37.490Z,17.13
2018-09-10T06:19:05.857Z,17.32
2018-09-10T06:21:34.457Z,17.65
2018-09-10T06:24:02.858Z,17.74
2018-09-10T06:26:31.238Z,17.98
2018-09-10T06:28:59.577Z,18.18
2018-09-10T06:31:27.902Z,18.49
2018-09-10T06:33:56.736Z,18.46
2018-09-10T06:36:25.711Z,18.68
2018-09-10T06:38:54.528Z,18.92
2018-09-10T06:41:23.084Z,19.03
2018-09-10T06:43:51.665Z,19.09
2018-09-10T06:46:20.064Z,19.17
2018-09-10T06:48:49.196Z,19.22
2018-09-10T06:51:17.584Z,19.30
2018-09-10T06:53:45.950Z,19.55
2018-09-10T06:56:14.292Z,19.53
2018-09-10T06:58:42.672Z,19.62
2018-09-10T07:01:11.053Z,19.74
2018-09-10T07:03:39.486Z,19.66
2018-09-10T07:06:07.901Z,19.73
2018-09-10T07:08:36.281Z,19.87
2018-09-10T07:11:04.742Z,20.42
2018-09-10T07:13:33.144Z,20.70
2018-09-10T07:16:01.533Z,20.94
2018-09-10T07:18:30.019Z,21.36
2018-09-10T07:20:58.375Z,22.13
2018-09-10T07:23:26.722Z,22.55
2018-09-10T07:25:55.087Z,22.96
2018-09-10T07:28:23.459Z,22.98
2018-09-10T07:30:52.356Z,23.20
2018-09-10T07:33:20.696Z,23.48
2018-09-10T07:35:49.063Z,23.67
2018-09-10T07:38:17.413Z,23.63
2018-09-10T07:40:45.835Z,24.05
2018-09-10T07:43:14.182Z,24.42
2018-09-10T07:45:42.620Z,24.14
2018-09-10T07:48:10.995Z,24.41
2018-09-10T07:50:39.379Z,24.51
2018-09-10T07:53:07.729Z,24.56
2018-09-10T07:55:36.119Z,24.92
2018-09-10T07:58:04.549Z,25.15
2018-09-10T08:00:33.755Z,25.45
2018-09-10T08:03:02.210Z,25.69
2018-09-10T08:05:30.571Z,26.01
2018-09-10T08:07:58.952Z,26.12
2018-09-10T08:10:27.318Z,26.44
2018-09-10T08:12:55.707Z,26.96
2018-09-10T08:15:24.087Z,27.23
2018-09-10T08:17:52.454Z,27.70
2018-09-10T08:20:20.801Z,27.69
2018-09-10T08:22:49.208Z,27.69
2018-09-10T08:25:17.660Z,27.77
2018-09-10T08:27:45.985Z,28.12
2018-09-10T08:30:14.431Z,28.27
2018-09-10T08:32:42.832Z,28.95
2018-09-10T08:35:11.190Z,28.64
2018-09-10T08:37:39.563Z,28.94
2018-09-10T08:40:07.999Z,28.99
2018-09-10T08:42:36.370Z,28.86
2018-09-10T08:45:05.181Z,29.07
2018-09-10T08:47:33.510Z,29.28
2018-09-10T08:50:01.890Z,29.66
2018-09-10T08:52:30.238Z,29.72
2018-09-10T08:54:59.016Z,29.22
2018-09-10T08:57:27.000Z,29.34
2018-09-10T08:59:55.355Z,29.58
2018-09-10T09:02:23.700Z,29.12
2018-09-10T09:04:52.067Z,28.58
2018-09-10T09:07:20.416Z,28.98
2018-09-10T09:09:48.768Z,28.68
2018-09-10T09:12:17.085Z,28.17
2018-09-10T09:14:45.449Z,28.05
2018-09-10T09:17:13.803Z,28.35
2018-09-10T09:19:42.136Z,27.91
2018-09-10T09:22:10.564Z,28.15
2018-09-10T09:24:38.946Z,27.90
2018-09-10T09:27:07.289Z,27.41
2018-09-10T09:29:35.864Z,26.92
2018-09-10T09:32:04.271Z,26.86
2018-09-10T09:34:37.820Z,26.59
2018-09-10T09:37:11.483Z,26.78
2018-09-10T09:39:45.214Z,26.84
2018-09-10T09:42:18.880Z,26.89
2018-09-10T09:44:52.560Z,26.66
2018-09-10T09:47:20.912Z,26.37
2018-09-10T09:49:49.331Z,26.51
2018-09-10T09:52:17.718Z,26.55
2018-09-10T09:54:46.087Z,26.53
2018-09-10T09:57:14.432Z,26.65
2018-09-10T09:59:42.782Z,26.84
2018-09-10T10:02:16.461Z,26.80
2018-09-10T10:04:44.807Z,27.20
2018-09-10T10:07:13.215Z,27.13
2018-09-10T10:09:41.584Z,27.27
2018-09-10T10:12:09.997Z,27.61
2018-09-10T10:14:38.336Z,28.23
2018-09-10T10:17:06.715Z,28.65
2018-09-10T10:19:35.084Z,28.85
2018-09-10T10:22:03.513Z,29.37
2018-09-10T10:24:31.891Z,29.57
2018-09-10T10:27:00.391Z,29.43
2018-09-10T10:29:28.735Z,29.80
2018-09-10T10:31:57.101Z,30.02
2018-09-10T10:34:25.451Z,29.93
2018-09-10T10:36:54.006Z,30.31
2018-09-10T10:39:22.426Z,29.82
2018-09-10T10:41:50.753Z,29.77
2018-09-10T10:44:19.112Z,29.81
2018-09-10T10:46:47.473Z,29.70
2018-09-10T10:49:15.830Z,28.92
2018-09-10T10:51:44.217Z,29.10
2018-09-10T10:54:12.593Z,28.82
2018-09-10T10:56:41.197Z,28.69
2018-09-10T10:59:09.547Z,28.29
2018-09-10T11:01:37.896Z,28.07
2018-09-10T11:04:06.258Z,28.26
2018-09-10T11:06:34.650Z,28.51
2018-09-10T11:09:03.021Z,28.31
2018-09-10T11:11:31.385Z,28.51
2018-09-10T11:13:59.743Z,28.16
2018-09-10T11:16:28.124Z,27.83
2018-09-10T11:18:56.477Z,27.90
2018-09-10T11:21:24.989Z,27.87
2018-09-10T11:23:53.349Z,27.74
2018-09-10T11:26:21.722Z,27.55
2018-09-10T11:28:50.056Z,27.57
2018-09-10T11:31:18.434Z,27.45
2018-09-10T11:33:47.044Z,27.29
2018-09-10T11:36:15.381Z,27.44
2018-09-10T11:38:43.718Z,27.40
2018-09-10T11:41:12.070Z,27.36
2018-09-10T11:43:40.476Z,27.32
2018-09-10T11:46:08.838Z,27.30
2018-09-10T11:48:37.204Z,27.33
2018-09-10T11:51:05.575Z,27.45
2018-09-10T11:53:34.058Z,27.35
2018-09-10T11:56:02.497Z,27.58
2018-09-10T11:58:31.354Z,27.54
2018-09-10T12:00:59.712Z,27.48
2018-09-10T12:03:28.065Z,27.39
2018-09-10T12:05:56.386Z,27.49
2018-09-10T12:08:24.988Z,27.38
2018-09-10T12:10:53.530Z,27.23
2018-09-10T12:13:21.988Z,27.38
2018-09-10T12:15:50.865Z,27.21
2018-09-10T12:18:19.254Z,27.30
2018-09-10T12:20:47.622Z,27.14
2018-09-10T12:23:15.997Z,27.18
2018-09-10T12:25:44.524Z,27.14
2018-09-10T12:28:12.903Z,27.06
2018-09-10T12:30:41.727Z,26.95
2018-09-10T12:33:10.235Z,26.93
2018-09-10T12:35:38.585Z,26.92
2018-09-10T12:38:06.949Z,26.82
2018-09-10T12:40:35.325Z,26.52
2018-09-10T12:43:03.684Z,26.58
2018-09-10T12:45:32.253Z,26.57
2018-09-10T12:48:00.769Z,26.47
2018-09-10T12:50:29.140Z,26.48
2018-09-10T12:52:57.526Z,26.37
2018-09-10T12:55:25.923Z,26.38
2018-09-10T12:57:54.309Z,26.31
2018-09-10T13:00:22.719Z,26.33
2018-09-10T13:02:51.091Z,26.15
2018-09-10T13:05:19.451Z,26.25
2018-09-10T13:07:47.983Z,26.12
2018-09-10T13:10:16.333Z,26.22
2018-09-10T13:12:44.992Z,26.26
2018-09-10T13:15:13.352Z,26.22
2018-09-10T13:17:41.875Z,26.18
2018-09-10T13:20:10.314Z,26.23
2018-09-10T13:22:38.702Z,26.26
2018-09-10T13:25:07.972Z,26.18
2018-09-10T13:27:36.371Z,26.20
2018-09-10T13:30:05.113Z,26.18
2018-09-10T13:32:33.454Z,26.19
2018-09-10T13:35:01.928Z,26.05
2018-09-10T13:37:30.401Z,26.06
2018-09-10T13:39:58.847Z,26.03
2018-09-10T13:42:27.656Z,25.89
2018-09-10T13:44:55.983Z,25.87
2018-09-10T13:47:24.921Z,25.93
2018-09-10T13:49:53.302Z,25.81
2018-09-10T13:52:21.618Z,25.87
2018-09-10T13:54:50.023Z,25.82
2018-09-10T13:57:18.396Z,25.83
2018-09-10T13:59:46.876Z,25.84
2018-09-10T14:02:15.164Z,25.75
2018-09-10T14:06:12.662Z,25.80
2018-09-10T14:08:41.043Z,25.82
2018-09-10T14:11:09.395Z,25.82
2018-09-10T14:13:37.787Z,25.81
2018-09-10T14:16:06.354Z,25.77
2018-09-10T14:18:34.733Z,25.73
2018-09-10T14:21:03.075Z,25.81
2018-09-10T14:23:31.488Z,25.78
2018-09-10T14:25:59.873Z,25.79
2018-09-10T14:28:28.325Z,25.82
2018-09-10T14:30:57.496Z,25.79
2018-09-10T14:33:25.895Z,25.86
2018-09-10T14:35:54.853Z,25.87
2018-09-10T14:38:23.285Z,25.90
2018-09-10T14:40:51.663Z,25.80
2018-09-10T14:43:19.993Z,25.86
2018-09-10T14:45:48.506Z,25.71
2018-09-10T14:48:16.884Z,25.71
2018-09-10T14:50:45.303Z,25.78
2018-09-10T14:53:13.714Z,25.77
2018-09-10T14:55:42.092Z,25.69
2018-09-10T14:58:10.439Z,25.68
2018-09-10T15:00:38.849Z,25.69
2018-09-10T15:03:07.196Z,25.63
2018-09-10T15:05:35.567Z,25.63
2018-09-10T15:08:04.017Z,25.56
2018-09-10T15:10:32.395Z,25.49
2018-09-10T15:13:00.953Z,25.44
2018-09-10T15:15:29.331Z,25.31
2018-09-10T15:17:57.709Z,25.24
2018-09-10T15:20:26.748Z,25.24
2018-09-10T15:22:55.109Z,25.29
2018-09-10T15:25:23.498Z,25.13
2018-09-10T15:27:51.884Z,25.06
2018-09-10T15:30:20.281Z,24.97
2018-09-10T15:32:48.932Z,24.97
2018-09-10T15:35:17.386Z,24.81
2018-09-10T15:37:45.762Z,24.62
2018-09-10T15:40:14.172Z,24.62
2018-09-10T15:42:42.521Z,24.63
2018-09-10T15:45:10.964Z,24.63
2018-09-10T15:47:39.246Z,24.62
2018-09-10T15:50:07.790Z,24.60
2018-09-10T15:52:36.284Z,24.43
2018-09-10T15:55:04.651Z,24.37
2018-09-10T15:57:33.056Z,24.39
2018-09-10T16:00:01.392Z,24.33
2018-09-10T16:02:29.758Z,24.35
2018-09-10T16:04:59.956Z,24.25
2018-09-10T16:07:28.368Z,24.22
2018-09-10T16:09:56.767Z,24.22
2018-09-10T16:12:25.228Z,24.17
2018-09-10T16:14:53.733Z,24.08
2018-09-10T16:17:22.090Z,24.04
2018-09-10T16:19:50.406Z,23.98
2018-09-10T16:22:18.768Z,23.98
2018-09-10T16:26:11.524Z,24.01
2018-09-10T16:28:39.855Z,23.87
2018-09-10T16:31:08.192Z,23.88
2018-09-10T16:33:36.540Z,23.84
2018-09-10T16:36:04.914Z,23.76
2018-09-10T16:38:33.293Z,23.73
2018-09-10T16:41:01.707Z,23.66
2018-09-10T16:43:30.017Z,23.63
2018-09-10T16:45:58.417Z,23.59
2018-09-10T16:48:26.836Z,23.54
2018-09-10T16:50:55.111Z,23.52
2018-09-10T16:53:23.415Z,23.48
2018-09-10T16:55:51.796Z,23.39
2018-09-10T16:58:20.157Z,23.43
2018-09-10T17:00:49.441Z,23.38
2018-09-10T17:03:17.701Z,23.37
2018-09-10T17:05:46.045Z,23.30
2018-09-10T17:08:14.380Z,23.25
2018-09-10T17:10:42.800Z,23.18
2018-09-10T17:13:11.220Z,23.12
2018-09-10T17:15:39.728Z,23.07
2018-09-10T17:18:08.312Z,23.06
2018-09-10T17:20:36.691Z,23.07
2018-09-10T17:23:05.041Z,23.00
2018-09-10T17:25:33.456Z,22.97
2018-09-10T17:28:01.782Z,22.93
2018-09-10T17:30:30.203Z,22.86
2018-09-10T17:32:58.589Z,22.82
2018-09-10T17:35:26.949Z,22.79
2018-09-10T17:37:55.343Z,22.74
2018-09-10T17:40:23.703Z,22.73
2018-09-10T17:42:52.040Z,22.71
2018-09-10T17:45:20.388Z,22.67
2018-09-10T17:47:48.713Z,22.62
2018-09-10T17:50:17.118Z,22.54
2018-09-10T17:52:45.505Z,22.50
2018-09-10T17:55:13.851Z,22.48
2018-09-10T17:57:42.256Z,22.48
2018-09-10T18:00:10.664Z,22.50
2018-09-10T18:02:39.175Z,22.46
2018-09-10T18:05:07.691Z,22.45
2018-09-10T18:07:36.057Z,22.42
2018-09-10T18:10:04.476Z,22.41
2018-09-10T18:12:32.827Z,22.36
2018-09-10T18:15:01.154Z,22.35
2018-09-10T18:17:29.561Z,22.33
2018-09-10T18:19:57.904Z,22.31
2018-09-10T18:22:26.299Z,22.28
2018-09-10T18:24:54.692Z,22.26
2018-09-10T18:27:23.035Z,22.26
2018-09-10T18:29:51.498Z,22.22
2018-09-10T18:32:19.849Z,22.19
2018-09-10T18:34:48.205Z,22.20
2018-09-10T18:37:16.545Z,22.17
2018-09-10T18:39:44.904Z,22.16
2018-09-10T18:42:13.253Z,22.09
2018-09-10T18:44:41.604Z,22.11
2018-09-10T18:47:10.485Z,22.09
2018-09-10T18:49:38.810Z,22.04
2018-09-10T18:52:07.492Z,22.00
2018-09-10T18:54:35.845Z,21.97
2018-09-10T18:57:04.227Z,21.97
2018-09-10T18:59:32.628Z,21.99
2018-09-10T19:02:00.992Z,21.92
2018-09-10T19:04:29.360Z,21.91
2018-09-10T19:06:57.764Z,21.88
2018-09-10T19:09:26.116Z,21.87
2018-09-10T19:11:54.522Z,21.83
2018-09-10T19:14:22.861Z,21.77
2018-09-10T19:16:51.244Z,21.73
2018-09-10T19:19:19.692Z,21.71
2018-09-10T19:21:48.037Z,21.68
2018-09-10T19:24:16.419Z,21.68
2018-09-10T19:26:44.794Z,21.63
2018-09-10T19:29:13.173Z,21.59
2018-09-10T19:31:41.552Z,21.60
2018-09-10T19:34:09.944Z,21.54
2018-09-10T19:36:38.341Z,21.50
2018-09-10T19:39:09.012Z,21.53
2018-09-10T19:41:37.389Z,21.53
2018-09-10T19:44:05.856Z,21.47
2018-09-10T19:46:34.253Z,21.43
2018-09-10T19:49:02.664Z,21.39
2018-09-10T19:51:31.557Z,21.32
2018-09-10T19:53:59.895Z,21.31
2018-09-10T19:56:28.310Z,21.31
2018-09-10T19:58:56.651Z,21.26
2018-09-10T20:01:25.030Z,21.23
2018-09-10T20:03:53.521Z,21.22
2018-09-10T20:06:21.895Z,21.24
2018-09-10T20:08:50.279Z,21.20
2018-09-10T20:11:18.689Z,21.18
2018-09-10T20:13:47.067Z,21.19
2018-09-10T20:16:15.407Z,21.19
2018-09-10T20:18:44.609Z,21.09
2018-09-10T20:21:13.023Z,21.10
2018-09-10T20:23:41.379Z,21.06
2018-09-10T20:26:09.808Z,21.08
2018-09-10T20:28:38.165Z,21.02
2018-09-10T20:31:06.777Z,20.97
2018-09-10T20:33:40.516Z,20.97
2018-09-10T20:36:08.964Z,20.93
2018-09-10T20:38:37.314Z,20.97
2018-09-10T20:41:05.720Z,20.83
2018-09-10T20:43:34.132Z,20.86
2018-09-10T20:46:02.523Z,20.86
2018-09-10T20:48:30.860Z,20.84
2018-09-10T20:50:59.204Z,20.78
2018-09-10T20:53:27.556Z,20.76
2018-09-10T20:55:55.917Z,20.74
2018-09-10T20:58:24.296Z,20.62
2018-09-10T21:00:52.669Z,20.55
2018-09-10T21:03:21.038Z,20.63
2018-09-10T21:05:49.385Z,20.64
2018-09-10T21:08:17.844Z,20.58
2018-09-10T21:10:46.281Z,20.58
2018-09-10T21:13:14.779Z,20.58
2018-09-10T21:15:43.143Z,20.51
2018-09-10T21:18:11.648Z,20.48
2018-09-10T21:20:40.044Z,20.43
2018-09-10T21:23:08.426Z,20.42
2018-09-10T21:25:36.829Z,20.36
2018-09-10T21:28:05.238Z,20.40
2018-09-10T21:30:33.616Z,20.35
2018-09-10T21:33:02.013Z,20.33
2018-09-10T21:35:30.392Z,20.33
2018-09-10T21:37:59.438Z,20.28
2018-09-10T21:40:27.837Z,20.24
2018-09-10T21:42:56.301Z,20.18
2018-09-10T21:45:24.649Z,20.21
2018-09-10T21:47:53.104Z,20.19
2018-09-10T21:50:22.506Z,20.17
2018-09-10T21:52:50.929Z,20.12
2018-09-10T21:55:19.483Z,20.10
2018-09-10T21:57:47.860Z,20.08
2018-09-10T22:00:16.680Z,20.04
2018-09-10T22:02:45.148Z,20.03
2018-09-10T22:05:13.572Z,20.02
2018-09-10T22:07:42.399Z,19.99
2018-09-10T22:10:10.856Z,19.97
2018-09-10T22:12:39.648Z,19.97
2018-09-10T22:15:08.047Z,19.94
2018-09-10T22:17:36.711Z,19.93
2018-09-10T22:20:05.191Z,19.90
2018-09-10T22:22:33.800Z,19.87
2018-09-10T22:25:02.176Z,19.84
2018-09-10T22:27:30.540Z,19.84
2018-09-10T22:29:58.956Z,19.82
2018-09-10T22:32:27.359Z,19.81
2018-09-10T22:34:55.758Z,19.77
2018-09-10T22:37:24.115Z,19.76
2018-09-10T22:39:52.467Z,19.77
2018-09-10T22:42:21.428Z,19.73
2018-09-10T22:44:49.909Z,19.76
2018-09-10T22:47:18.760Z,19.76
2018-09-10T22:49:47.148Z,19.74
2018-09-10T22:52:15.514Z,19.76
2018-09-10T22:54:43.862Z,19.77
2018-09-10T22:57:12.203Z,19.71
2018-09-10T22:59:40.552Z,19.74
2018-09-10T23:02:08.924Z,19.73
2018-09-10T23:04:37.292Z,19.67
2018-09-10T23:07:05.691Z,19.66
2018-09-10T23:09:34.089Z,19.63
2018-09-10T23:12:02.457Z,19.65
2018-09-10T23:14:30.788Z,19.67
2018-09-10T23:16:59.271Z,19.61
2018-09-10T23:19:27.609Z,19.60
2018-09-10T23:21:55.968Z,19.61
2018-09-10T23:24:24.344Z,19.61
2018-09-10T23:26:52.723Z,19.57
2018-09-10T23:29:21.063Z,19.57
2018-09-10T23:31:49.413Z,19.55
2018-09-10T23:34:17.765Z,19.52
2018-09-10T23:36:46.107Z,19.57
2018-09-10T23:39:14.757Z,19.52
2018-09-10T23:41:43.827Z,19.45
2018-09-10T23:44:12.341Z,19.49
2018-09-10T23:46:40.768Z,19.40
2018-09-10T23:49:09.164Z,19.42
2018-09-10T23:51:37.517Z,19.40
2018-09-10T23:54:05.866Z,19.29
2018-09-10T23:56:34.238Z,19.29
2018-09-10T23:59:02.610Z,19.33
